Time;durP1;ratioP1;P1;durP2;ratioP2;P2;SDS_P1;SDS_P2;PMS_P1;PMS_P2;Temp;Humidity;BMP_temperature;BMP_pressure;BME280_temperature;BME280_humidity;BME280_pressure;Samples;Min_cycle;Max_cycle;Signal;HPM_P1;HPM_P2
2023/02/07 00:00:41;;;;;;;7.43;4.63;;;-1.00;99.90;;;;;;5071608;28;20211;-75
2023/02/07 00:03:09;;;;;;;3.50;3.20;;;-1.00;99.90;;;;;;5072962;28;20204;-74
2023/02/07 00:05:36;;;;;;;8.10;5.00;;;-1.10;99.90;;;;;;5072327;28;20225;-74
2023/02/07 00:08:03;;;;;;;8.18;4.50;;;-1.20;99.90;;;;;;5072240;28;20556;-74
2023/02/07 00:10:30;;;;;;;7.47;4.80;;;-1.30;99.90;;;;;;5072101;28;20197;-74
2023/02/07 00:12:57;;;;;;;7.57;4.72;;;-1.30;99.90;;;;;;5072001;28;20231;-74
2023/02/07 00:15:24;;;;;;;4.60;3.75;;;-1.40;99.90;;;;;;5072271;28;20220;-75
2023/02/07 00:17:51;;;;;;;4.38;3.97;;;-1.40;99.90;;;;;;5072286;28;20212;-74
2023/02/07 00:20:20;;;;;;;5.93;4.25;;;-1.50;99.90;;;;;;5072019;28;20204;-75
2023/02/07 00:22:46;;;;;;;6.95;4.07;;;-1.50;99.90;;;;;;5071867;28;20671;-75
2023/02/07 00:25:13;;;;;;;8.68;5.57;;;-1.50;99.90;;;;;;5072274;28;20200;-74
2023/02/07 00:27:40;;;;;;;8.15;3.72;;;-1.60;99.90;;;;;;5071710;28;20201;-75
2023/02/07 00:30:08;;;;;;;6.85;4.35;;;-1.60;99.90;;;;;;5071734;28;20247;-75
2023/02/07 00:32:35;;;;;;;6.82;4.47;;;-1.70;99.90;;;;;;5071973;28;20200;-74
2023/02/07 00:35:02;;;;;;;8.27;4.68;;;-1.70;99.90;;;;;;5071826;28;20854;-73
2023/02/07 00:37:30;;;;;;;9.35;5.18;;;-1.70;99.90;;;;;;5071515;28;20227;-75
2023/02/07 00:39:57;;;;;;;5.50;4.13;;;-1.80;99.90;;;;;;5071308;28;20215;-74
2023/02/07 00:42:24;;;;;;;7.20;4.20;;;-1.80;99.90;;;;;;5072452;28;20205;-74
2023/02/07 00:44:50;;;;;;;7.05;4.50;;;-1.80;99.90;;;;;;5071749;28;20211;-73
2023/02/07 00:47:17;;;;;;;6.78;3.55;;;-1.80;99.90;;;;;;5071940;28;20264;-74
2023/02/07 00:49:44;;;;;;;5.45;4.78;;;-1.80;99.90;;;;;;5070647;28;20207;-73
2023/02/07 00:52:11;;;;;;;5.78;4.20;;;-1.80;99.90;;;;;;5071324;28;20211;-74
2023/02/07 00:54:39;;;;;;;4.13;3.72;;;-1.80;99.90;;;;;;5071677;28;20699;-75
2023/02/07 00:57:05;;;;;;;10.07;4.35;;;-1.70;99.90;;;;;;5071045;28;20228;-75
2023/02/07 00:59:32;;;;;;;8.27;5.35;;;-1.70;99.90;;;;;;5070941;28;20204;-75
2023/02/07 01:01:59;;;;;;;7.35;5.20;;;-1.80;99.90;;;;;;5071570;28;20283;-75
2023/02/07 01:04:25;;;;;;;6.60;4.55;;;-1.80;99.90;;;;;;5071120;28;20201;-75
2023/02/07 01:06:52;;;;;;;5.47;4.00;;;-1.90;99.90;;;;;;5071926;28;20228;-75
2023/02/07 01:09:19;;;;;;;8.40;5.05;;;-1.90;99.90;;;;;;5071718;28;20201;-74
2023/02/07 01:11:47;;;;;;;4.63;4.03;;;-1.90;99.90;;;;;;5072331;28;20217;-76
2023/02/07 01:14:14;;;;;;;9.60;5.13;;;-1.90;99.90;;;;;;5072102;28;20220;-75
2023/02/07 01:16:42;;;;;;;6.53;5.10;;;-1.90;99.90;;;;;;5071608;28;20233;-75
2023/02/07 01:19:10;;;;;;;8.38;4.68;;;-1.80;99.90;;;;;;5070910;28;20210;-75
2023/02/07 01:21:37;;;;;;;7.32;4.00;;;-1.80;99.90;;;;;;5071923;28;20200;-75
2023/02/07 01:24:05;;;;;;;6.38;3.88;;;-1.80;99.90;;;;;;5072242;28;20192;-75
2023/02/07 01:26:31;;;;;;;5.88;3.67;;;-1.90;99.90;;;;;;5071702;28;20730;-74
2023/02/07 01:29:01;;;;;;;5.80;3.95;;;-1.80;99.90;;;;;;5071452;28;20204;-75
2023/02/07 01:31:28;;;;;;;5.68;3.80;;;-1.80;99.90;;;;;;5071752;28;20227;-73
2023/02/07 01:33:56;;;;;;;6.25;3.53;;;-1.90;99.90;;;;;;5071709;28;20227;-76
2023/02/07 01:36:23;;;;;;;4.85;3.90;;;-1.90;99.90;;;;;;5071722;28;20220;-75
2023/02/07 01:38:51;;;;;;;8.73;4.63;;;-1.90;99.90;;;;;;5071487;28;20558;-76
2023/02/07 01:41:17;;;;;;;4.70;3.85;;;-1.90;99.90;;;;;;5073315;28;20208;-75
2023/02/07 01:44:01;;;;;;;9.00;4.63;;;-1.90;99.90;;;;;;5071009;28;20201;-74
2023/02/07 01:46:30;;;;;;;6.55;4.40;;;-1.80;99.90;;;;;;5071731;28;20595;-74
2023/02/07 01:49:00;;;;;;;7.65;5.32;;;-1.80;99.90;;;;;;5071061;28;20208;-76
2023/02/07 01:51:29;;;;;;;8.23;4.80;;;-1.70;99.90;;;;;;5071727;28;20205;-75
2023/02/07 01:53:59;;;;;;;7.30;4.40;;;-1.70;99.90;;;;;;5071165;28;20236;-75
2023/02/07 01:56:26;;;;;;;5.72;4.57;;;-1.70;99.90;;;;;;5071427;28;20228;-75
2023/02/07 01:58:54;;;;;;;6.10;4.90;;;-1.70;99.90;;;;;;5070725;28;20200;-75
2023/02/07 02:01:24;;;;;;;6.32;4.90;;;-1.70;99.90;;;;;;5071611;28;20228;-75
2023/02/07 02:03:54;;;;;;;6.35;4.05;;;-1.80;99.90;;;;;;5071123;28;20668;-75
2023/02/07 02:06:22;;;;;;;6.43;4.10;;;-1.80;99.90;;;;;;5071153;28;20217;-74
2023/02/07 02:08:49;;;;;;;6.55;4.93;;;-1.90;99.90;;;;;;5070665;28;20201;-75
2023/02/07 02:11:34;;;;;;;5.38;4.20;;;-1.90;99.90;;;;;;5071371;28;20204;-75
2023/02/07 02:14:08;;;;;;;9.82;4.78;;;-1.90;99.90;;;;;;5071272;28;20289;-75
2023/02/07 02:16:42;;;;;;;8.52;5.97;;;-2.00;99.90;;;;;;5070686;28;20228;-76
2023/02/07 02:19:49;;;;;;;6.20;4.55;;;-2.00;99.90;;;;;;5070771;28;20200;-76
2023/02/07 02:22:47;;;;;;;8.30;5.03;;;-1.90;99.90;;;;;;5070955;28;20204;-76
2023/02/07 02:25:51;;;;;;;8.88;4.85;;;-1.90;99.90;;;;;;5071071;28;20196;-75
2023/02/07 02:29:00;;;;;;;8.48;5.30;;;-2.00;99.90;;;;;;5070507;28;20200;-74
2023/02/07 02:32:01;;;;;;;5.70;4.47;;;-2.10;99.90;;;;;;5070806;28;20258;-74
2023/02/07 02:34:33;;;;;;;8.73;5.03;;;-2.10;99.90;;;;;;5065701;28;20227;-75
2023/02/07 02:37:07;;;;;;;5.60;4.43;;;-2.30;99.90;;;;;;5070722;28;20224;-75
2023/02/07 02:39:40;;;;;;;7.40;5.03;;;-2.30;99.90;;;;;;5070082;28;20205;-74
2023/02/07 02:42:14;;;;;;;9.60;5.68;;;-2.30;99.90;;;;;;5071362;28;20224;-74
2023/02/07 02:44:47;;;;;;;10.80;5.93;;;-2.40;99.90;;;;;;5070754;28;20675;-75
2023/02/07 02:47:14;;;;;;;5.82;4.35;;;-2.40;99.90;;;;;;5070783;28;20232;-74
2023/02/07 02:49:43;;;;;;;10.43;5.38;;;-2.40;99.90;;;;;;5069955;28;20201;-75
2023/02/07 02:52:10;;;;;;;7.65;4.88;;;-2.50;99.90;;;;;;5070767;28;20207;-75
2023/02/07 02:54:39;;;;;;;6.35;5.28;;;-2.60;99.90;;;;;;5069283;28;20221;-75
2023/02/07 02:57:42;;;;;;;10.85;5.45;;;-2.60;99.90;;;;;;5070687;28;20247;-75
2023/02/07 03:00:35;;;;;;;8.07;5.57;;;-2.70;99.90;;;;;;5069946;28;20251;-75
2023/02/07 03:03:20;;;;;;;10.02;4.78;;;-2.70;99.90;;;;;;5065450;28;20200;-75
2023/02/07 03:05:56;;;;;;;4.43;3.97;;;-2.70;99.90;;;;;;5070145;28;20231;-75
2023/02/07 03:08:34;;;;;;;6.00;4.78;;;-2.80;99.90;;;;;;5070041;28;20206;-75
2023/02/07 03:11:08;;;;;;;7.47;5.05;;;-2.80;99.90;;;;;;5070245;28;20199;-75
2023/02/07 03:13:45;;;;;;;11.82;6.05;;;-2.80;99.90;;;;;;5070504;28;20199;-75
2023/02/07 03:16:19;;;;;;;7.00;4.82;;;-2.90;99.90;;;;;;5070280;28;20228;-75
2023/02/07 03:18:51;;;;;;;8.68;5.65;;;-2.90;99.90;;;;;;5069660;28;20199;-75
2023/02/07 03:21:24;;;;;;;10.55;5.75;;;-2.90;99.90;;;;;;5070477;28;20205;-75
2023/02/07 03:23:52;;;;;;;9.05;6.35;;;-2.90;99.90;;;;;;5069938;28;20261;-75
2023/02/07 03:26:22;;;;;;;9.15;5.75;;;-2.90;99.90;;;;;;5070411;28;20217;-75
2023/02/07 03:28:50;;;;;;;8.52;5.63;;;-2.90;99.90;;;;;;5069491;28;20215;-75
2023/02/07 03:31:20;;;;;;;7.55;5.45;;;-2.90;99.90;;;;;;5070242;28;20232;-75
2023/02/07 03:33:51;;;;;;;7.07;6.13;;;-2.90;99.90;;;;;;5070029;28;20238;-75
2023/02/07 03:36:23;;;;;;;7.47;5.65;;;-2.90;99.90;;;;;;5070311;28;20658;-75
2023/02/07 03:38:50;;;;;;;11.07;5.55;;;-3.00;99.90;;;;;;5069504;28;20201;-75
2023/02/07 03:41:23;;;;;;;8.50;5.95;;;-3.00;99.90;;;;;;5070371;28;20204;-74
2023/02/07 03:43:52;;;;;;;9.40;5.35;;;-3.00;99.90;;;;;;5070101;28;20200;-75
2023/02/07 03:46:19;;;;;;;6.75;4.93;;;-3.00;99.90;;;;;;5069922;28;20221;-75
2023/02/07 03:48:46;;;;;;;7.97;6.40;;;-3.00;99.90;;;;;;5069428;28;20201;-75
2023/02/07 03:51:12;;;;;;;8.98;6.25;;;-3.10;99.90;;;;;;5070035;28;20207;-75
2023/02/07 03:53:40;;;;;;;8.15;5.88;;;-3.10;99.90;;;;;;5069547;28;20695;-75
2023/02/07 03:56:07;;;;;;;10.13;6.22;;;-3.10;99.90;;;;;;5069829;28;20753;-76
2023/02/07 03:58:34;;;;;;;9.07;6.15;;;-3.10;99.90;;;;;;5069347;28;20294;-76
2023/02/07 04:01:01;;;;;;;8.82;6.10;;;-3.10;99.90;;;;;;5069855;28;20296;-75
2023/02/07 04:03:27;;;;;;;8.60;5.80;;;-3.10;99.90;;;;;;5070018;28;20196;-76
2023/02/07 04:05:54;;;;;;;9.23;6.40;;;-3.10;99.90;;;;;;5070322;28;20220;-75
2023/02/07 04:08:21;;;;;;;10.80;6.55;;;-3.10;99.90;;;;;;5072982;28;20203;-73
2023/02/07 04:10:58;;;;;;;8.18;5.88;;;-3.20;99.90;;;;;;5073533;28;20212;-75
2023/02/07 04:13:25;;;;;;;9.13;6.00;;;-3.20;99.90;;;;;;5073433;28;20210;-75
2023/02/07 04:15:52;;;;;;;7.47;5.55;;;-3.20;99.90;;;;;;5073105;28;20235;-75
2023/02/07 04:18:18;;;;;;;8.98;7.00;;;-3.20;99.90;;;;;;5072926;28;20204;-75
2023/02/07 04:20:45;;;;;;;8.40;5.90;;;-3.20;99.90;;;;;;5073350;28;20223;-75
2023/02/07 04:23:12;;;;;;;7.18;5.32;;;-3.20;99.90;;;;;;5073458;28;20691;-75
2023/02/07 04:25:39;;;;;;;10.95;6.00;;;-3.20;99.90;;;;;;5073472;28;20224;-75
2023/02/07 04:28:07;;;;;;;10.20;6.90;;;-3.20;99.90;;;;;;5073727;28;20204;-75
2023/02/07 04:30:34;;;;;;;9.63;6.20;;;-3.20;99.90;;;;;;5072804;28;20244;-75
2023/02/07 04:33:01;;;;;;;6.93;6.20;;;-3.20;99.90;;;;;;5073303;28;20200;-76
2023/02/07 04:35:27;;;;;;;6.45;4.72;;;-3.20;99.90;;;;;;5073011;28;20228;-75
2023/02/07 04:37:54;;;;;;;12.82;5.90;;;-3.30;99.90;;;;;;5073065;28;20200;-74
2023/02/07 04:40:21;;;;;;;9.00;5.90;;;-3.30;99.90;;;;;;5072674;28;20207;-74
2023/02/07 04:42:48;;;;;;;7.43;6.05;;;-3.30;99.90;;;;;;5073004;28;20208;-74
2023/02/07 04:45:16;;;;;;;11.20;6.47;;;-3.30;99.90;;;;;;5073242;28;20200;-75
2023/02/07 04:47:42;;;;;;;6.20;4.85;;;-3.40;99.90;;;;;;5073182;28;20207;-74
2023/02/07 04:50:09;;;;;;;7.03;5.32;;;-3.40;99.90;;;;;;5072413;28;20208;-74
2023/02/07 04:52:39;;;;;;;9.77;6.10;;;-3.40;99.90;;;;;;5072839;28;20581;-74
2023/02/07 04:55:06;;;;;;;10.68;6.07;;;-3.40;99.90;;;;;;5072900;28;20219;-75
2023/02/07 04:57:33;;;;;;;8.00;7.20;;;-3.40;99.90;;;;;;5072732;28;20225;-74
2023/02/07 04:59:59;;;;;;;6.60;4.93;;;-3.40;99.90;;;;;;5072122;28;20576;-75
2023/02/07 05:02:28;;;;;;;10.65;6.80;;;-3.40;99.90;;;;;;5072373;28;20211;-74
2023/02/07 05:04:54;;;;;;;11.35;6.35;;;-3.40;99.90;;;;;;5072374;28;20196;-75
2023/02/07 05:07:21;;;;;;;7.80;7.00;;;-3.40;99.90;;;;;;5072468;28;20895;-74
2023/02/07 05:09:48;;;;;;;7.70;4.65;;;-3.40;99.90;;;;;;5071638;28;20216;-74
2023/02/07 05:12:14;;;;;;;10.30;6.75;;;-3.40;99.90;;;;;;5072456;28;20227;-74
2023/02/07 05:14:41;;;;;;;8.30;5.20;;;-3.40;99.90;;;;;;5072111;28;20231;-74
2023/02/07 05:17:08;;;;;;;8.88;5.10;;;-3.40;99.90;;;;;;5071769;28;20270;-75
2023/02/07 05:19:36;;;;;;;10.20;5.85;;;-3.50;99.90;;;;;;5070881;28;20209;-74
2023/02/07 05:22:03;;;;;;;9.15;5.45;;;-3.40;99.90;;;;;;5072071;28;20200;-74
2023/02/07 05:24:29;;;;;;;7.18;5.40;;;-3.40;99.90;;;;;;5072132;28;20200;-75
2023/02/07 05:26:56;;;;;;;7.30;6.18;;;-3.40;99.90;;;;;;5071834;28;20715;-75
2023/02/07 05:29:23;;;;;;;7.63;4.68;;;-3.40;99.90;;;;;;5071543;28;20200;-73
2023/02/07 05:34:36;;;;;;;6.72;5.00;;;-3.50;99.90;;;;;;5071970;28;20195;-74
2023/02/07 05:37:02;;;;;;;8.45;5.72;;;-3.50;99.90;;;;;;5071472;28;20231;-74
2023/02/07 05:39:29;;;;;;;6.50;4.47;;;-3.40;99.90;;;;;;5071113;28;20200;-75
2023/02/07 05:41:56;;;;;;;9.73;6.35;;;-3.40;99.90;;;;;;5071578;28;20223;-72
2023/02/07 05:44:23;;;;;;;6.00;5.32;;;-3.40;99.90;;;;;;5071701;28;20673;-74
2023/02/07 05:46:49;;;;;;;6.63;5.07;;;-3.40;99.90;;;;;;5071255;28;20224;-74
2023/02/07 05:49:16;;;;;;;6.85;4.72;;;-3.50;99.90;;;;;;5071114;28;20205;-74
2023/02/07 05:51:44;;;;;;;7.22;4.93;;;-3.50;99.90;;;;;;5071247;28;20206;-74
2023/02/07 05:54:11;;;;;;;9.68;5.50;;;-3.60;99.90;;;;;;5071552;28;20201;-75
2023/02/07 05:56:38;;;;;;;7.85;5.65;;;-3.60;99.90;;;;;;5071166;28;20235;-75
2023/02/07 05:59:04;;;;;;;8.43;5.20;;;-3.60;99.90;;;;;;5070805;28;20545;-74
2023/02/07 06:01:31;;;;;;;7.68;5.18;;;-3.60;99.90;;;;;;5071371;28;20224;-73
2023/02/07 06:03:58;;;;;;;5.80;4.85;;;-3.60;99.90;;;;;;5071096;28;20216;-74
2023/02/07 06:06:25;;;;;;;7.40;4.53;;;-3.60;99.90;;;;;;5070964;28;20220;-75
2023/02/07 06:08:53;;;;;;;7.00;4.93;;;-3.70;99.90;;;;;;5070518;28;20216;-74
2023/02/07 06:11:19;;;;;;;5.93;4.28;;;-3.70;99.90;;;;;;5071396;28;20550;-74
2023/02/07 06:13:46;;;;;;;7.95;5.53;;;-3.70;99.90;;;;;;5071251;28;20226;-73
2023/02/07 06:16:13;;;;;;;9.52;5.65;;;-3.70;99.90;;;;;;5071014;28;20657;-74
2023/02/07 06:18:39;;;;;;;5.68;4.47;;;-3.70;99.90;;;;;;5070414;28;20207;-74
2023/02/07 06:21:06;;;;;;;7.28;6.05;;;-3.70;99.90;;;;;;5070767;28;20317;-74
2023/02/07 06:23:33;;;;;;;8.85;5.50;;;-3.70;99.90;;;;;;5070780;28;20203;-73
2023/02/07 06:26:01;;;;;;;7.65;5.68;;;-3.80;99.90;;;;;;5070812;28;20239;-74
2023/02/07 06:28:28;;;;;;;7.30;5.32;;;-3.80;99.90;;;;;;5070492;28;20456;-74
2023/02/07 06:30:54;;;;;;;5.68;4.20;;;-3.80;99.90;;;;;;5070584;28;20299;-74
2023/02/07 06:33:21;;;;;;;7.20;5.00;;;-3.80;99.90;;;;;;5070831;28;20206;-74
2023/02/07 06:35:48;;;;;;;7.32;5.07;;;-3.80;99.90;;;;;;5070407;28;20239;-75
2023/02/07 06:38:15;;;;;;;9.65;6.20;;;-3.80;99.90;;;;;;5071017;28;20207;-75
2023/02/07 06:40:43;;;;;;;7.15;4.47;;;-3.80;99.90;;;;;;5070747;28;20207;-75
2023/02/07 06:43:11;;;;;;;8.13;5.25;;;-3.80;99.90;;;;;;5071156;28;20212;-74
2023/02/07 06:45:38;;;;;;;6.55;4.78;;;-3.80;99.90;;;;;;5070991;28;20239;-74
2023/02/07 06:48:05;;;;;;;6.97;4.57;;;-3.80;99.90;;;;;;5070685;28;20201;-74
2023/02/07 06:50:32;;;;;;;12.05;5.95;;;-3.80;99.90;;;;;;5070345;28;20594;-74
2023/02/07 06:53:00;;;;;;;7.60;4.82;;;-3.80;99.90;;;;;;5070519;28;20212;-75
2023/02/07 06:55:28;;;;;;;4.93;4.53;;;-3.70;99.90;;;;;;5070776;28;20231;-74
2023/02/07 06:57:55;;;;;;;8.95;5.25;;;-3.70;99.90;;;;;;5070687;28;20787;-75
2023/02/07 07:00:24;;;;;;;7.15;4.82;;;-3.80;99.90;;;;;;5070236;28;20201;-74
2023/02/07 07:02:51;;;;;;;7.25;6.20;;;-3.70;99.90;;;;;;5070543;28;20200;-75
2023/02/07 07:05:18;;;;;;;5.78;4.55;;;-3.70;99.90;;;;;;5070424;28;20291;-75
2023/02/07 07:07:45;;;;;;;6.75;5.72;;;-3.80;99.90;;;;;;5070290;28;20204;-75
2023/02/07 07:10:12;;;;;;;12.60;4.38;;;-3.80;99.90;;;;;;5069739;28;20726;-74
2023/02/07 07:12:39;;;;;;;8.55;4.90;;;-3.80;99.90;;;;;;5070430;28;20240;-74
2023/02/07 07:15:06;;;;;;;7.18;4.88;;;-3.80;99.90;;;;;;5072571;28;20204;-75
2023/02/07 07:17:34;;;;;;;9.70;5.28;;;-3.80;99.90;;;;;;5071839;28;20225;-75
2023/02/07 07:20:01;;;;;;;7.30;4.60;;;-3.80;99.90;;;;;;5069873;28;20204;-75
2023/02/07 07:22:28;;;;;;;7.75;5.07;;;-3.80;99.90;;;;;;5070280;28;20215;-75
2023/02/07 07:24:55;;;;;;;8.07;5.25;;;-3.80;99.90;;;;;;5070189;28;20698;-74
2023/02/07 07:27:22;;;;;;;7.93;5.07;;;-3.80;99.90;;;;;;5070387;28;20262;-74
2023/02/07 07:29:49;;;;;;;7.90;4.95;;;-3.80;99.90;;;;;;5070164;28;20223;-75
2023/02/07 07:32:15;;;;;;;8.23;5.40;;;-3.70;99.90;;;;;;5070686;28;20204;-74
2023/02/07 07:34:43;;;;;;;6.68;5.05;;;-3.70;99.90;;;;;;5070494;28;20204;-75
2023/02/07 07:37:12;;;;;;;9.30;5.72;;;-3.60;99.90;;;;;;5070378;28;20227;-75
2023/02/07 07:39:39;;;;;;;9.82;4.70;;;-3.60;99.90;;;;;;5069751;28;20200;-75
2023/02/07 07:42:05;;;;;;;7.07;5.07;;;-3.50;99.90;;;;;;5072950;28;20200;-75
2023/02/07 07:44:32;;;;;;;7.82;4.43;;;-3.50;99.90;;;;;;5074288;28;20306;-75
2023/02/07 07:46:59;;;;;;;6.88;5.43;;;-3.50;99.90;;;;;;5074147;28;20574;-75
2023/02/07 07:49:26;;;;;;;8.13;5.10;;;-3.40;99.90;;;;;;5073589;28;20571;-74
2023/02/07 07:51:54;;;;;;;6.65;4.88;;;-3.30;99.90;;;;;;5073906;28;20593;-78
2023/02/07 07:54:21;;;;;;;9.60;5.38;;;-3.10;99.90;;;;;;5070697;28;20193;-74
2023/02/07 07:56:48;;;;;;;6.03;4.85;;;-2.60;99.90;;;;;;5072617;28;20274;-76
2023/02/07 07:59:15;;;;;;;8.43;5.40;;;-1.10;99.90;;;;;;5073352;28;20207;-74
2023/02/07 08:01:42;;;;;;;7.90;6.10;;;0.90;99.90;;;;;;5073047;28;20219;-74
2023/02/07 08:04:09;;;;;;;7.43;5.07;;;2.60;99.90;;;;;;5074467;28;20287;-75
2023/02/07 08:06:35;;;;;;;4.97;4.47;;;4.10;99.90;;;;;;5074510;28;20220;-75
2023/02/07 08:09:04;;;;;;;6.00;4.95;;;5.10;99.90;;;;;;5073533;28;20200;-75
2023/02/07 08:11:31;;;;;;;8.15;4.65;;;6.00;99.90;;;;;;5073890;28;20230;-75
2023/02/07 08:13:57;;;;;;;8.10;5.60;;;6.80;99.30;;;;;;5073403;28;20296;-74
2023/02/07 08:16:24;;;;;;;7.32;5.35;;;7.40;98.60;;;;;;5073359;28;20228;-75
2023/02/07 08:18:51;;;;;;;7.32;5.43;;;7.60;97.90;;;;;;5073238;28;20204;-76
2023/02/07 08:21:18;;;;;;;9.95;5.78;;;7.70;97.40;;;;;;5073634;28;20205;-76
2023/02/07 08:23:45;;;;;;;6.53;5.45;;;7.90;95.50;;;;;;5072659;28;20204;-74
2023/02/07 08:26:13;;;;;;;8.38;5.22;;;8.00;94.80;;;;;;5073124;28;20307;-74
2023/02/07 08:28:40;;;;;;;8.20;5.55;;;7.30;94.70;;;;;;5057921;28;20201;-77
2023/02/07 08:31:07;;;;;;;7.07;5.60;;;7.30;95.70;;;;;;5052781;28;20201;-76
2023/02/07 08:33:33;;;;;;;6.40;5.28;;;7.50;94.80;;;;;;5052841;28;20550;-75
2023/02/07 08:36:00;;;;;;;7.70;5.57;;;7.30;94.40;;;;;;5052820;28;20232;-75
2023/02/07 08:38:27;;;;;;;8.68;5.47;;;8.00;94.70;;;;;;5052217;28;20197;-76
2023/02/07 08:40:54;;;;;;;6.60;5.90;;;8.80;94.10;;;;;;5052682;28;20201;-75
2023/02/07 08:43:22;;;;;;;6.70;5.90;;;9.60;93.30;;;;;;5053164;28;20205;-75
2023/02/07 08:45:49;;;;;;;7.72;6.20;;;10.40;92.00;;;;;;5052000;28;20715;-74
2023/02/07 08:48:16;;;;;;;7.60;6.35;;;10.70;90.80;;;;;;5052502;28;20746;-76
2023/02/07 08:50:42;;;;;;;7.47;6.63;;;11.10;90.80;;;;;;5052301;28;20208;-76
2023/02/07 08:53:09;;;;;;;6.22;5.63;;;11.50;90.90;;;;;;5052503;28;20201;-74
2023/02/07 08:55:36;;;;;;;6.43;5.50;;;12.90;90.20;;;;;;5052794;28;20252;-75
2023/02/07 08:58:03;;;;;;;9.32;6.50;;;13.90;87.20;;;;;;5052777;28;20232;-75
2023/02/07 09:00:34;;;;;;;6.32;5.72;;;14.90;84.40;;;;;;5052127;28;20201;-75
2023/02/07 09:03:01;;;;;;;7.72;6.65;;;15.20;80.30;;;;;;5052288;28;20208;-74
2023/02/07 09:05:31;;;;;;;6.50;5.90;;;15.10;80.50;;;;;;5052318;28;20467;-74
2023/02/07 09:07:59;;;;;;;8.25;6.53;;;15.40;79.60;;;;;;5052844;28;20240;-74
2023/02/07 09:10:26;;;;;;;7.72;6.50;;;14.80;77.30;;;;;;5052098;28;20204;-74
2023/02/07 09:12:53;;;;;;;7.13;6.43;;;15.20;77.60;;;;;;5035969;28;20201;-74
2023/02/07 09:15:19;;;;;;;7.10;6.17;;;16.30;75.40;;;;;;5042785;28;20455;-75
2023/02/07 09:18:00;;;;;;;6.90;5.60;;;16.80;75.80;;;;;;5069339;28;20482;-76
2023/02/07 09:20:27;;;;;;;7.00;5.73;;;16.90;73.30;;;;;;5070749;28;20462;-76
2023/02/07 09:25:38;;;;;;;6.33;5.27;;;18.20;72.30;;;;;;5074064;28;20458;-74
2023/02/07 09:28:06;;;;;;;7.00;6.30;;;17.30;71.30;;;;;;5072031;28;20459;-74
2023/02/07 09:30:33;;;;;;;7.23;5.93;;;17.00;71.70;;;;;;5067202;28;20458;-74
2023/02/07 09:33:01;;;;;;;6.87;6.20;;;17.30;72.10;;;;;;5071893;28;20457;-74
2023/02/07 09:35:28;;;;;;;6.73;5.57;;;17.30;69.30;;;;;;5072209;28;20459;-74
2023/02/07 09:37:56;;;;;;;6.07;5.47;;;16.60;69.40;;;;;;5072089;28;21033;-73
2023/02/07 09:40:23;;;;;;;7.57;6.17;;;16.70;71.20;;;;;;5071178;28;20834;-75
2023/02/07 09:42:56;;;;;;;6.47;5.47;;;17.10;70.10;;;;;;5072260;28;20459;-73
2023/02/07 09:45:26;;;;;;;7.80;5.70;;;16.80;70.30;;;;;;5067995;28;20842;-74
2023/02/07 09:48:00;;;;;;;8.30;5.73;;;17.10;71.30;;;;;;5069071;28;20546;-74
2023/02/07 09:50:31;;;;;;;5.47;4.93;;;17.60;70.70;;;;;;5063672;28;20527;-73
2023/02/07 09:53:03;;;;;;;7.33;6.47;;;17.00;69.00;;;;;;5070903;28;20458;-74
2023/02/07 09:55:37;;;;;;;6.40;5.60;;;17.60;70.00;;;;;;5071163;28;21045;-73
2023/02/07 09:58:12;;;;;;;6.57;5.43;;;17.50;69.70;;;;;;5071510;28;20916;-73
2023/02/07 10:00:42;;;;;;;7.03;6.07;;;17.30;69.60;;;;;;5070939;28;20506;-73
2023/02/07 10:03:14;;;;;;;6.53;5.80;;;17.50;67.90;;;;;;5071474;28;20463;-75
2023/02/07 10:05:48;;;;;;;6.13;5.53;;;17.30;68.10;;;;;;5071764;28;20471;-73
2023/02/07 10:08:17;;;;;;;9.40;6.37;;;17.40;68.40;;;;;;5070765;28;20482;-74
2023/02/07 10:10:46;;;;;;;7.83;6.30;;;17.70;69.30;;;;;;5071512;28;20462;-73
2023/02/07 10:13:38;;;;;;;7.40;5.83;;;17.60;67.00;;;;;;5071361;28;20466;-73
2023/02/07 10:16:18;;;;;;;6.87;6.23;;;18.00;68.40;;;;;;5070701;28;20494;-73
2023/02/07 10:18:50;;;;;;;6.93;5.80;;;18.00;66.80;;;;;;5070973;28;20473;-74
2023/02/07 10:21:31;;;;;;;7.13;5.87;;;17.70;66.30;;;;;;5071181;28;20493;-74
2023/02/07 10:24:22;;;;;;;5.80;5.00;;;17.90;68.80;;;;;;5060782;28;20485;-74
2023/02/07 10:26:53;;;;;;;5.43;4.93;;;18.20;65.60;;;;;;5050792;28;20850;-75
2023/02/07 10:29:44;;;;;;;5.67;5.03;;;18.10;66.30;;;;;;5048274;28;20879;-74
2023/02/07 10:32:15;;;;;;;5.93;5.33;;;18.30;65.10;;;;;;5048387;28;20827;-75
2023/02/07 10:34:46;;;;;;;8.17;5.40;;;17.90;65.20;;;;;;5042506;28;20455;-75
2023/02/07 10:37:18;;;;;;;5.67;5.17;;;17.80;65.90;;;;;;5064745;28;20854;-73
2023/02/07 10:39:52;;;;;;;5.63;4.90;;;17.40;66.10;;;;;;5069375;28;20881;-73
2023/02/07 10:42:19;;;;;;;5.90;5.13;;;18.00;65.50;;;;;;5070388;28;20490;-74
2023/02/07 10:44:46;;;;;;;6.00;5.50;;;18.40;63.10;;;;;;5069826;28;20470;-74
2023/02/07 10:47:16;;;;;;;6.80;5.40;;;17.90;61.50;;;;;;5070496;28;20977;-74
2023/02/07 10:49:45;;;;;;;7.00;5.43;;;17.60;66.10;;;;;;5069900;28;20467;-75
2023/02/07 10:52:27;;;;;;;7.60;5.10;;;17.60;65.20;;;;;;5069102;28;20465;-74
2023/02/07 10:54:56;;;;;;;5.83;5.23;;;17.50;62.70;;;;;;5070431;28;20466;-73
2023/02/07 10:57:24;;;;;;;5.80;5.13;;;17.00;64.50;;;;;;5069570;28;20483;-73
2023/02/07 10:59:58;;;;;;;6.33;5.27;;;17.30;65.50;;;;;;5069498;28;20648;-74
2023/02/07 11:02:50;;;;;;;7.30;5.10;;;18.00;66.10;;;;;;5070014;28;20839;-75
2023/02/07 11:05:31;;;;;;;5.30;4.80;;;18.00;63.70;;;;;;5059115;28;20458;-75
2023/02/07 11:08:01;;;;;;;5.57;4.50;;;18.30;63.90;;;;;;5069695;28;20469;-75
2023/02/07 11:10:33;;;;;;;5.50;5.00;;;18.30;63.80;;;;;;5069024;28;20458;-76
2023/02/07 11:13:01;;;;;;;5.17;4.67;;;18.60;62.80;;;;;;5069725;28;20470;-74
2023/02/07 11:15:45;;;;;;;5.10;4.60;;;18.90;62.30;;;;;;5069292;28;20470;-75
2023/02/07 11:18:36;;;;;;;6.23;5.60;;;18.80;62.00;;;;;;5073452;28;20485;-75
2023/02/07 11:21:03;;;;;;;4.87;4.47;;;19.20;60.50;;;;;;5074446;28;20493;-74
2023/02/07 11:23:32;;;;;;;4.77;3.90;;;19.10;61.00;;;;;;5074051;28;20469;-74
2023/02/07 11:25:59;;;;;;;4.80;4.27;;;18.50;62.20;;;;;;5072189;28;20479;-74
2023/02/07 11:28:29;;;;;;;5.97;5.37;;;19.10;60.60;;;;;;5053016;28;20577;-74
2023/02/07 11:31:01;;;;;;;6.60;5.20;;;18.90;60.60;;;;;;5054132;28;20463;-74
2023/02/07 11:33:31;;;;;;;5.17;4.67;;;19.20;61.00;;;;;;5053971;28;20463;-74
2023/02/07 11:36:06;;;;;;;5.70;5.20;;;19.10;60.90;;;;;;5052762;28;20998;-74
2023/02/07 11:38:39;;;;;;;5.70;5.10;;;19.50;59.80;;;;;;5053375;28;21021;-73
2023/02/07 11:41:06;;;;;;;5.03;4.60;;;20.20;59.30;;;;;;5053312;28;20467;-72
2023/02/07 11:43:35;;;;;;;5.17;4.67;;;19.90;58.40;;;;;;5050975;28;20593;-74
2023/02/07 11:46:09;;;;;;;4.70;4.23;;;19.90;56.90;;;;;;5053442;28;20475;-74
2023/02/07 11:48:38;;;;;;;5.00;4.47;;;19.30;57.40;;;;;;5052841;28;20974;-72
2023/02/07 11:51:09;;;;;;;5.73;4.60;;;18.60;57.70;;;;;;5052864;28;20470;-74
2023/02/07 11:53:39;;;;;;;5.07;4.30;;;18.50;57.90;;;;;;5053071;28;20474;-74
2023/02/07 11:56:07;;;;;;;5.50;4.40;;;18.60;58.50;;;;;;5052836;28;20486;-75
2023/02/07 11:58:38;;;;;;;5.60;4.40;;;18.80;57.30;;;;;;5052066;28;20507;-73
2023/02/07 12:01:06;;;;;;;4.80;4.10;;;19.30;56.20;;;;;;5053525;28;20482;-75
2023/02/07 12:03:40;;;;;;;3.70;3.40;;;19.10;56.00;;;;;;5052972;28;20471;-75
2023/02/07 12:06:11;;;;;;;3.90;3.60;;;18.40;53.30;;;;;;5052106;28;20493;-73
2023/02/07 12:08:41;;;;;;;4.33;3.73;;;17.20;55.00;;;;;;5052298;28;21145;-74
2023/02/07 12:11:12;;;;;;;5.40;4.23;;;16.70;56.90;;;;;;5052410;28;20474;-74
2023/02/07 12:13:42;;;;;;;6.20;4.67;;;17.00;56.40;;;;;;5052668;28;20456;-75
2023/02/07 12:16:12;;;;;;;4.50;3.80;;;16.60;57.20;;;;;;5056153;28;20490;-74
2023/02/07 12:18:46;;;;;;;4.80;4.07;;;16.40;56.70;;;;;;5072119;28;20482;-75
2023/02/07 12:21:19;;;;;;;4.50;4.10;;;16.50;57.40;;;;;;5070792;28;20977;-75
2023/02/07 12:23:54;;;;;;;4.50;4.10;;;16.50;56.00;;;;;;5072552;28;20458;-72
2023/02/07 12:26:25;;;;;;;4.47;4.00;;;15.30;58.40;;;;;;5071676;28;20222;-75
2023/02/07 12:29:16;;;;;;;4.88;4.45;;;15.00;59.00;;;;;;5070355;28;20204;-74
2023/02/07 12:31:50;;;;;;;7.40;5.23;;;15.30;59.40;;;;;;5077981;28;20211;-74
2023/02/07 12:34:22;;;;;;;6.30;5.33;;;15.70;62.80;;;;;;5076648;28;20455;-75
2023/02/07 12:36:55;;;;;;;5.10;4.60;;;16.40;59.50;;;;;;5081073;28;20470;-74
2023/02/07 12:39:32;;;;;;;4.77;4.27;;;16.50;60.60;;;;;;5078222;28;20458;-76
2023/02/07 12:42:11;;;;;;;6.10;4.60;;;16.80;60.40;;;;;;5073333;28;20521;-75
2023/02/07 12:44:42;;;;;;;6.97;4.17;;;16.80;58.60;;;;;;5073907;28;20466;-73
2023/02/07 12:47:17;;;;;;;4.83;4.33;;;15.80;57.20;;;;;;5074401;28;20482;-76
2023/02/07 12:50:02;;;;;;;4.70;4.25;;;14.90;59.00;;;;;;5073448;28;20493;-76
2023/02/07 12:52:43;;;;;;;4.95;4.28;;;15.00;59.90;;;;;;5075212;28;20701;-76
2023/02/07 12:55:23;;;;;;;5.00;4.55;;;15.00;59.50;;;;;;5073752;28;20203;-76
2023/02/07 12:57:57;;;;;;;5.28;4.00;;;14.90;58.80;;;;;;5069146;28;20584;-75
2023/02/07 13:00:31;;;;;;;4.35;3.90;;;14.70;60.00;;;;;;5074171;28;20223;-75
2023/02/07 13:03:11;;;;;;;5.82;4.60;;;14.30;59.40;;;;;;5061414;28;20217;-76
2023/02/07 13:05:56;;;;;;;6.55;4.95;;;13.60;59.10;;;;;;5073997;28;20217;-76